createdAt,value
2022-10-09T00:01:20.563Z,99.90
2022-10-09T00:04:22.210Z,99.90
2022-10-09T00:07:23.889Z,99.90
2022-10-09T00:10:25.750Z,99.90
2022-10-09T00:13:27.405Z,99.90
2022-10-09T00:16:29.337Z,99.90
2022-10-09T00:19:31.629Z,99.90
2022-10-09T00:22:34.485Z,99.90
2022-10-09T00:25:36.822Z,99.90
2022-10-09T00:28:39.137Z,99.90
2022-10-09T00:31:40.815Z,99.90
2022-10-09T00:34:42.664Z,99.90
2022-10-09T00:37:44.348Z,99.90
2022-10-09T00:40:46.125Z,99.90
2022-10-09T00:43:54.287Z,99.90
2022-10-09T00:46:55.946Z,99.90
2022-10-09T00:50:10.065Z,99.90
2022-10-09T00:53:17.163Z,99.90
2022-10-09T00:56:18.997Z,99.90
2022-10-09T00:59:21.220Z,99.90
2022-10-09T01:02:22.866Z,99.90
2022-10-09T01:05:46.760Z,99.90
2022-10-09T01:08:54.401Z,99.90
2022-10-09T01:12:02.671Z,99.90
2022-10-09T01:15:04.694Z,99.90
2022-10-09T01:18:16.121Z,99.90
2022-10-09T01:21:25.805Z,99.90
2022-10-09T01:24:41.984Z,99.90
2022-10-09T01:27:43.865Z,99.90
2022-10-09T01:30:46.569Z,99.90
2022-10-09T01:33:49.315Z,99.90
2022-10-09T01:36:52.131Z,99.90
2022-10-09T01:39:54.320Z,99.90
2022-10-09T01:42:56.381Z,99.90
2022-10-09T01:46:18.647Z,99.90
2022-10-09T01:49:32.267Z,99.90
2022-10-09T01:53:00.947Z,99.90
2022-10-09T01:56:09.297Z,99.90
2022-10-09T01:59:15.790Z,99.90
2022-10-09T02:02:18.823Z,99.90
2022-10-09T02:05:25.613Z,99.90
2022-10-09T02:08:29.112Z,99.90
2022-10-09T02:11:33.313Z,99.90
2022-10-09T02:14:35.885Z,99.90
2022-10-09T02:17:43.843Z,99.90
2022-10-09T02:20:50.412Z,99.90
2022-10-09T02:23:54.801Z,99.90
2022-10-09T02:26:58.394Z,99.90
2022-10-09T02:30:01.567Z,99.90
2022-10-09T02:33:05.222Z,99.90
2022-10-09T02:36:06.929Z,99.90
2022-10-09T02:39:09.163Z,99.90
2022-10-09T02:42:10.973Z,99.90
2022-10-09T02:45:13.031Z,99.90
2022-10-09T02:48:14.651Z,99.90
2022-10-09T02:51:16.776Z,99.90
2022-10-09T02:54:18.565Z,99.90
2022-10-09T02:57:20.216Z,99.90
2022-10-09T03:00:21.899Z,99.90
2022-10-09T03:03:23.702Z,99.90
2022-10-09T03:06:27.192Z,99.90
2022-10-09T03:09:33.391Z,99.90
2022-10-09T03:12:35.529Z,99.90
2022-10-09T03:15:37.574Z,99.90
2022-10-09T03:18:39.677Z,99.90
2022-10-09T03:21:41.339Z,99.90
2022-10-09T03:24:42.971Z,99.90
2022-10-09T03:27:44.622Z,99.90
2022-10-09T03:30:46.282Z,99.90
2022-10-09T03:33:48.085Z,99.90
2022-10-09T03:36:50.241Z,99.90
2022-10-09T03:39:51.933Z,99.90
2022-10-09T03:42:53.570Z,99.90
2022-10-09T03:45:59.239Z,99.90
2022-10-09T03:49:02.701Z,99.90
2022-10-09T03:52:04.519Z,99.90
2022-10-09T03:55:06.627Z,99.90
2022-10-09T03:58:08.768Z,99.90
2022-10-09T04:01:10.544Z,99.90
2022-10-09T04:04:12.273Z,99.90
2022-10-09T04:07:13.932Z,99.90
2022-10-09T04:10:15.924Z,99.90
2022-10-09T04:13:17.563Z,99.90
2022-10-09T04:16:19.223Z,99.90
2022-10-09T04:19:20.864Z,99.90
2022-10-09T04:22:22.660Z,99.90
2022-10-09T04:25:24.392Z,99.90
2022-10-09T04:28:30.614Z,99.90
2022-10-09T04:31:32.634Z,99.90
2022-10-09T04:34:34.317Z,99.90
2022-10-09T04:37:36.697Z,99.90
2022-10-09T04:40:38.564Z,99.90
2022-10-09T04:43:40.233Z,99.90
2022-10-09T04:46:42.215Z,99.90
2022-10-09T04:49:43.892Z,99.90
2022-10-09T04:52:45.886Z,99.90
2022-10-09T04:55:47.677Z,99.90
2022-10-09T04:58:49.576Z,99.90
2022-10-09T05:01:51.253Z,99.90
2022-10-09T05:04:52.996Z,99.90
2022-10-09T05:07:54.648Z,99.90
2022-10-09T05:11:03.999Z,99.90
2022-10-09T05:14:05.662Z,99.90
2022-10-09T05:17:14.155Z,99.90
2022-10-09T05:20:16.771Z,99.90
2022-10-09T05:23:18.453Z,99.90
2022-10-09T05:26:22.140Z,99.90
2022-10-09T05:29:23.787Z,99.90
2022-10-09T05:32:25.484Z,99.90
2022-10-09T05:35:27.129Z,99.90
2022-10-09T05:38:29.511Z,99.90
2022-10-09T05:41:31.214Z,99.90
2022-10-09T05:44:32.869Z,99.90
2022-10-09T05:47:34.538Z,99.90
2022-10-09T05:50:36.187Z,99.90
2022-10-09T05:53:39.223Z,99.90
2022-10-09T05:56:41.314Z,99.90
2022-10-09T05:59:43.770Z,99.90
2022-10-09T06:02:45.551Z,99.90
2022-10-09T06:05:47.241Z,99.90
2022-10-09T06:08:49.215Z,99.90
2022-10-09T06:11:52.170Z,99.90
2022-10-09T06:14:53.803Z,99.90
2022-10-09T06:17:55.450Z,99.90
2022-10-09T06:20:59.677Z,99.90
2022-10-09T06:24:04.071Z,99.90
2022-10-09T06:27:05.711Z,99.90
2022-10-09T06:30:08.003Z,99.90
2022-10-09T06:33:09.678Z,99.90
2022-10-09T06:36:12.462Z,99.90
2022-10-09T06:39:14.125Z,99.90
2022-10-09T06:42:17.029Z,99.90
2022-10-09T06:45:25.962Z,99.90
2022-10-09T06:48:32.146Z,99.90
2022-10-09T06:51:34.782Z,99.90
2022-10-09T06:54:36.412Z,99.90
2022-10-09T06:57:38.060Z,99.90
2022-10-09T07:00:39.732Z,99.90
2022-10-09T07:03:43.792Z,99.90
2022-10-09T07:06:47.578Z,99.90
2022-10-09T07:09:49.233Z,99.90
2022-10-09T07:12:51.174Z,99.90
2022-10-09T07:15:53.230Z,99.90
2022-10-09T07:18:55.356Z,99.90
2022-10-09T07:21:57.081Z,99.90
2022-10-09T07:24:58.795Z,99.90
2022-10-09T07:28:00.472Z,99.90
2022-10-09T07:31:05.942Z,99.90
2022-10-09T07:34:08.048Z,99.90
2022-10-09T07:37:09.701Z,99.90
2022-10-09T07:40:11.389Z,99.90
2022-10-09T07:43:13.033Z,99.90
2022-10-09T07:46:17.452Z,99.90
2022-10-09T07:49:19.543Z,99.90
2022-10-09T07:52:21.184Z,99.90
2022-10-09T07:55:22.885Z,99.90
2022-10-09T07:58:25.364Z,99.90
2022-10-09T08:01:28.331Z,99.90
2022-10-09T08:04:30.026Z,99.90
2022-10-09T08:07:34.917Z,99.90
2022-10-09T08:10:36.771Z,99.90
2022-10-09T08:13:39.351Z,99.90
2022-10-09T08:16:41.025Z,99.90
2022-10-09T08:19:42.680Z,99.90
2022-10-09T08:22:44.304Z,99.90
2022-10-09T08:25:47.473Z,99.90
2022-10-09T08:28:54.958Z,99.90
2022-10-09T08:31:56.665Z,99.90
2022-10-09T08:34:58.335Z,99.90
2022-10-09T08:38:00.035Z,99.90
2022-10-09T08:41:07.321Z,99.90
2022-10-09T08:44:20.323Z,99.90
2022-10-09T08:47:43.150Z,99.90
2022-10-09T08:50:50.007Z,99.90
2022-10-09T08:53:58.519Z,99.90
2022-10-09T08:57:04.084Z,99.90
2022-10-09T09:00:21.061Z,99.90
2022-10-09T09:03:35.268Z,99.90
2022-10-09T09:06:42.499Z,99.90
2022-10-09T09:09:53.756Z,99.90
2022-10-09T09:13:00.607Z,99.90
2022-10-09T09:16:14.225Z,99.90
2022-10-09T09:19:45.881Z,99.90
2022-10-09T09:22:50.100Z,99.90
2022-10-09T09:25:52.084Z,99.90
2022-10-09T09:29:00.286Z,99.90
2022-10-09T09:32:02.677Z,99.90
2022-10-09T09:35:21.746Z,99.90
2022-10-09T09:38:23.582Z,99.90
2022-10-09T09:41:25.419Z,99.90
2022-10-09T09:44:30.293Z,99.90
2022-10-09T09:47:41.515Z,99.90
2022-10-09T09:50:56.355Z,99.90
2022-10-09T09:54:15.593Z,99.90
2022-10-09T09:57:29.168Z,99.90
2022-10-09T10:00:31.021Z,99.90
2022-10-09T10:03:35.313Z,99.90
2022-10-09T10:06:44.220Z,99.90
2022-10-09T10:09:45.882Z,99.90
2022-10-09T10:12:53.780Z,99.90
2022-10-09T10:15:57.660Z,99.90
2022-10-09T10:18:59.486Z,99.90
2022-10-09T10:22:04.019Z,99.90
2022-10-09T10:25:11.505Z,99.90
2022-10-09T10:28:20.906Z,99.90
2022-10-09T10:31:40.311Z,99.90
2022-10-09T10:34:57.631Z,99.90
2022-10-09T10:38:23.856Z,99.90
2022-10-09T10:41:32.801Z,99.90
2022-10-09T10:44:46.858Z,99.90
2022-10-09T10:47:52.599Z,99.90
2022-10-09T10:51:26.469Z,99.90
2022-10-09T10:54:42.882Z,99.90
2022-10-09T10:58:05.689Z,99.90
2022-10-09T11:01:35.444Z,99.90
2022-10-09T11:04:55.818Z,99.90
2022-10-09T11:08:06.772Z,99.90
2022-10-09T11:11:46.658Z,99.90
2022-10-09T11:15:03.353Z,99.90
2022-10-09T11:18:17.194Z,99.90
2022-10-09T11:21:27.847Z,99.90
2022-10-09T11:24:41.815Z,99.90
2022-10-09T11:28:01.886Z,99.90
2022-10-09T11:31:08.639Z,99.90
2022-10-09T11:34:21.379Z,99.90
2022-10-09T11:37:28.300Z,99.90
2022-10-09T11:40:34.633Z,99.40
2022-10-09T11:44:03.350Z,99.90
2022-10-09T11:47:08.902Z,99.90
2022-10-09T11:50:42.079Z,99.20
2022-10-09T11:53:45.398Z,96.00
2022-10-09T11:56:55.851Z,96.90
2022-10-09T12:00:09.423Z,97.50
2022-10-09T12:03:24.553Z,97.00
2022-10-09T12:06:26.429Z,92.90
2022-10-09T12:09:30.881Z,94.50
2022-10-09T12:12:33.486Z,93.40
2022-10-09T12:15:52.313Z,92.90
2022-10-09T12:18:54.710Z,92.10
2022-10-09T12:22:04.817Z,92.00
2022-10-09T12:25:26.389Z,92.80
2022-10-09T12:28:38.308Z,90.60
2022-10-09T12:31:42.310Z,92.80
2022-10-09T12:34:48.360Z,90.70
2022-10-09T12:37:50.442Z,92.10
2022-10-09T12:40:54.197Z,90.50
2022-10-09T12:43:57.567Z,92.30
2022-10-09T12:47:03.884Z,89.20
2022-10-09T12:50:24.255Z,91.80
2022-10-09T12:53:27.424Z,82.10
2022-10-09T12:56:33.451Z,82.00
2022-10-09T12:59:35.165Z,83.70
2022-10-09T13:02:36.815Z,81.60
2022-10-09T13:05:40.671Z,87.10
2022-10-09T13:08:43.358Z,83.40
2022-10-09T13:11:51.122Z,84.70
2022-10-09T13:14:55.303Z,84.90
2022-10-09T13:17:57.089Z,87.80
2022-10-09T13:21:20.124Z,82.70
2022-10-09T13:24:21.771Z,81.40
2022-10-09T13:27:30.996Z,69.20
2022-10-09T13:30:33.464Z,66.60
2022-10-09T13:33:35.450Z,68.70
2022-10-09T13:36:37.141Z,74.00
2022-10-09T13:39:38.928Z,79.10
2022-10-09T13:42:40.964Z,79.00
2022-10-09T13:45:43.351Z,73.90
2022-10-09T13:48:45.387Z,72.20
2022-10-09T13:51:47.057Z,72.30
2022-10-09T13:54:48.715Z,63.50
2022-10-09T13:57:50.581Z,60.40
2022-10-09T14:00:52.681Z,54.20
2022-10-09T14:03:54.320Z,52.80
2022-10-09T14:06:56.141Z,58.30
2022-10-09T14:09:57.809Z,62.50
2022-10-09T14:12:59.487Z,54.50
2022-10-09T14:16:05.654Z,52.10
2022-10-09T14:19:07.386Z,54.50
2022-10-09T14:22:09.049Z,54.10
2022-10-09T14:25:10.920Z,49.70
2022-10-09T14:28:12.596Z,47.30
2022-10-09T14:31:17.255Z,53.10
2022-10-09T14:34:18.905Z,55.60
2022-10-09T14:37:39.803Z,57.80
2022-10-09T14:40:45.488Z,59.30
2022-10-09T14:43:48.626Z,57.50
2022-10-09T14:46:50.313Z,51.20
2022-10-09T14:49:52.162Z,47.20
2022-10-09T14:52:53.926Z,47.00
2022-10-09T14:55:55.584Z,44.90
2022-10-09T14:59:00.423Z,44.70
2022-10-09T15:02:02.453Z,45.90
2022-10-09T15:05:04.984Z,51.00
2022-10-09T15:08:07.260Z,51.60
2022-10-09T15:11:10.858Z,55.10
2022-10-09T15:14:13.369Z,53.40
2022-10-09T15:17:15.040Z,54.50
2022-10-09T15:20:16.736Z,62.10
2022-10-09T15:23:18.408Z,60.40
2022-10-09T15:26:20.055Z,64.70
2022-10-09T15:29:21.930Z,66.80
2022-10-09T15:32:24.241Z,67.00
2022-10-09T15:35:26.084Z,68.00
2022-10-09T15:38:27.743Z,72.30
2022-10-09T15:41:31.557Z,72.00
2022-10-09T15:44:33.223Z,76.50
2022-10-09T15:47:50.452Z,77.90
2022-10-09T15:50:53.645Z,76.00
2022-10-09T15:53:56.055Z,79.90
2022-10-09T15:56:57.705Z,78.00
2022-10-09T15:59:59.343Z,81.60
2022-10-09T16:03:01.006Z,80.20
2022-10-09T16:06:05.918Z,82.30
2022-10-09T16:09:08.284Z,83.50
2022-10-09T16:12:10.104Z,83.70
2022-10-09T16:15:11.766Z,86.30
2022-10-09T16:18:15.363Z,85.30
2022-10-09T16:21:22.657Z,89.20
2022-10-09T16:24:24.284Z,87.50
2022-10-09T16:27:25.937Z,90.40
2022-10-09T16:30:27.945Z,91.50
2022-10-09T16:33:29.882Z,91.40
2022-10-09T16:36:31.641Z,91.60
2022-10-09T16:39:33.336Z,91.80
2022-10-09T16:42:35.009Z,90.90
2022-10-09T16:45:36.699Z,93.10
2022-10-09T16:48:38.388Z,93.70
2022-10-09T16:51:40.138Z,96.40
2022-10-09T16:54:42.016Z,96.90
2022-10-09T16:57:43.835Z,97.60
2022-10-09T17:00:45.492Z,98.90
2022-10-09T17:03:47.319Z,99.90
2022-10-09T17:06:49.078Z,99.70
2022-10-09T17:09:51.847Z,99.80
2022-10-09T17:12:53.482Z,99.30
2022-10-09T17:15:55.176Z,99.20
2022-10-09T17:18:57.111Z,98.00
2022-10-09T17:22:00.677Z,96.90
2022-10-09T17:25:03.115Z,98.30
2022-10-09T17:28:08.022Z,99.80
2022-10-09T17:31:14.147Z,99.70
2022-10-09T17:34:16.270Z,99.90
2022-10-09T17:37:17.994Z,99.90
2022-10-09T17:40:19.623Z,99.90
2022-10-09T17:43:21.330Z,99.90
2022-10-09T17:46:24.349Z,99.90
2022-10-09T17:49:26.215Z,99.90
2022-10-09T17:52:27.878Z,99.90
2022-10-09T17:55:30.044Z,99.90
2022-10-09T17:58:31.714Z,99.90
2022-10-09T18:01:33.973Z,99.90
2022-10-09T18:04:35.732Z,99.90
2022-10-09T18:07:37.536Z,99.90
2022-10-09T18:10:39.605Z,99.90
2022-10-09T18:13:42.136Z,99.90
2022-10-09T18:16:44.161Z,99.90
2022-10-09T18:19:45.891Z,99.90
2022-10-09T18:22:47.867Z,99.90
2022-10-09T18:25:49.600Z,99.90
2022-10-09T18:28:51.318Z,99.90
2022-10-09T18:31:55.612Z,99.90
2022-10-09T18:34:57.436Z,99.90
2022-10-09T18:37:59.092Z,99.90
2022-10-09T18:41:01.964Z,99.90
2022-10-09T18:44:04.479Z,99.90
2022-10-09T18:47:11.628Z,99.90
2022-10-09T18:50:14.895Z,99.90
2022-10-09T18:53:16.731Z,99.90
2022-10-09T18:56:20.336Z,99.90
2022-10-09T18:59:22.711Z,99.90
2022-10-09T19:02:26.789Z,99.90
2022-10-09T19:05:28.663Z,99.90
2022-10-09T19:08:30.422Z,99.90
2022-10-09T19:11:33.832Z,99.90
2022-10-09T19:14:36.395Z,99.90
2022-10-09T19:17:38.061Z,99.90
2022-10-09T19:20:39.735Z,99.90
2022-10-09T19:23:42.003Z,99.90
2022-10-09T19:26:43.687Z,99.90
2022-10-09T19:29:45.407Z,99.90
2022-10-09T19:32:47.272Z,99.90
2022-10-09T19:35:52.094Z,99.90
2022-10-09T19:38:54.681Z,99.90
2022-10-09T19:41:56.389Z,99.90
2022-10-09T19:44:58.417Z,99.90
2022-10-09T19:48:00.479Z,99.90
2022-10-09T19:51:07.658Z,99.90
2022-10-09T19:54:10.065Z,99.90
2022-10-09T19:57:11.729Z,99.90
2022-10-09T20:00:13.826Z,99.90
2022-10-09T20:03:15.487Z,99.90
2022-10-09T20:06:17.112Z,99.90
2022-10-09T20:09:20.659Z,99.90
2022-10-09T20:12:22.570Z,99.90
2022-10-09T20:15:24.276Z,99.90
2022-10-09T20:18:26.760Z,99.90
2022-10-09T20:21:30.476Z,99.90
2022-10-09T20:24:32.136Z,99.90
2022-10-09T20:27:33.804Z,99.90
2022-10-09T20:30:35.470Z,99.90
2022-10-09T20:33:38.788Z,99.90
2022-10-09T20:36:40.525Z,99.90
2022-10-09T20:39:42.230Z,99.90
2022-10-09T20:42:44.001Z,99.90
2022-10-09T20:45:46.160Z,99.90
2022-10-09T20:48:48.084Z,99.90
2022-10-09T20:51:51.063Z,99.90
2022-10-09T20:54:52.718Z,99.90
2022-10-09T20:57:55.111Z,99.90
2022-10-09T21:00:57.222Z,99.90
2022-10-09T21:03:59.315Z,99.90
2022-10-09T21:07:01.096Z,99.90
2022-10-09T21:10:03.016Z,99.90
2022-10-09T21:13:04.669Z,99.90
2022-10-09T21:16:08.796Z,99.90
2022-10-09T21:19:11.379Z,99.90
2022-10-09T21:22:13.011Z,99.90
2022-10-09T21:25:14.708Z,99.90
2022-10-09T21:28:17.790Z,99.90
2022-10-09T21:31:22.846Z,99.90
2022-10-09T21:34:24.490Z,99.90
2022-10-09T21:37:26.119Z,99.90
2022-10-09T21:40:27.763Z,99.90
2022-10-09T21:43:29.542Z,99.90
2022-10-09T21:46:31.416Z,99.90
2022-10-09T21:49:33.068Z,99.90
2022-10-09T21:52:34.714Z,99.90
2022-10-09T21:55:37.883Z,99.90
2022-10-09T21:58:48.140Z,99.90
2022-10-09T22:01:50.553Z,99.90
2022-10-09T22:04:52.230Z,99.90
2022-10-09T22:07:53.864Z,99.90
2022-10-09T22:10:55.511Z,99.90
2022-10-09T22:13:57.255Z,99.90
2022-10-09T22:16:59.060Z,99.90
2022-10-09T22:20:00.734Z,99.90
2022-10-09T22:23:02.360Z,99.90
2022-10-09T22:26:11.103Z,99.90
2022-10-09T22:29:12.742Z,99.90
2022-10-09T22:32:14.368Z,99.90
2022-10-09T22:35:16.207Z,99.90
2022-10-09T22:38:17.871Z,99.90
2022-10-09T22:41:21.667Z,99.90
2022-10-09T22:44:23.369Z,99.90
2022-10-09T22:47:25.001Z,99.90
2022-10-09T22:50:26.645Z,99.90
2022-10-09T22:53:28.322Z,99.90
2022-10-09T22:56:41.176Z,99.90
2022-10-09T22:59:43.222Z,99.90
2022-10-09T23:02:44.878Z,99.90
2022-10-09T23:05:47.148Z,99.90
2022-10-09T23:08:49.642Z,99.90
2022-10-09T23:11:51.585Z,99.90
2022-10-09T23:14:53.413Z,99.90
2022-10-09T23:17:55.076Z,99.90
2022-10-09T23:20:56.915Z,99.90
2022-10-09T23:23:58.954Z,99.90
2022-10-09T23:27:00.590Z,99.90
2022-10-09T23:30:02.306Z,99.90
2022-10-09T23:33:04.118Z,99.90
2022-10-09T23:36:06.977Z,99.90
2022-10-09T23:39:08.829Z,99.90
2022-10-09T23:42:10.496Z,99.90
2022-10-09T23:45:12.228Z,99.90
2022-10-09T23:48:13.868Z,99.90
2022-10-09T23:51:17.229Z,99.90
2022-10-09T23:54:18.893Z,99.90
2022-10-09T23:57:20.565Z,99.90
